Mauriceville, Texas
Current Conditions -  °F | °C
As of 2:15 PM on Wednesday 26 Nov 2014 (Local Time) from KORG Reporting Station
Clear Clear  
Wind Chill: 70°   Ceiling: Unl
Heat Index: 70°   Visibility: 10mi
Dew Point: 36°   Wind: 14mph
Humidity: 29%   Direction: 220°SW
Pressure: 30.18"   Gusts: 21mph
Location:  30.2°N, 93.87°W
Report Text: KORG 262015Z AUTO 22012G18KT 10SM CLR 21/02 A3018 RMK AO2 T02100022
Loading
Personal Weather Stations






























Interactive Weather Map New forecast layout! Learn more

10-Day Weather Forecast

Advertisements
Track Severe Weather on mobile